createdAt,value
2023-01-08T00:02:24.530Z,7.13
2023-01-08T00:04:53.806Z,7.16
2023-01-08T00:07:23.389Z,7.15
2023-01-08T00:09:55.008Z,7.14
2023-01-08T00:12:24.541Z,7.14
2023-01-08T00:14:54.959Z,7.18
2023-01-08T00:17:24.527Z,7.15
2023-01-08T00:19:53.677Z,7.08
2023-01-08T00:22:23.026Z,7.05
2023-01-08T00:24:52.099Z,7.10
2023-01-08T00:27:21.487Z,7.03
2023-01-08T00:29:50.583Z,7.07
2023-01-08T00:32:21.279Z,7.06
2023-01-08T00:34:50.421Z,7.18
2023-01-08T00:37:20.234Z,7.23
2023-01-08T00:39:49.319Z,7.22
2023-01-08T00:42:18.840Z,7.35
2023-01-08T00:44:47.868Z,7.30
2023-01-08T00:47:17.369Z,7.35
2023-01-08T00:49:47.921Z,7.27
2023-01-08T00:52:17.458Z,7.25
2023-01-08T00:54:46.462Z,7.31
2023-01-08T00:57:15.769Z,7.27
2023-01-08T00:59:45.063Z,7.30
2023-01-08T01:02:14.576Z,7.40
2023-01-08T01:04:43.763Z,7.42
2023-01-08T01:07:14.581Z,7.32
2023-01-08T01:09:43.607Z,7.45
2023-01-08T01:12:13.100Z,7.33
2023-01-08T01:14:42.317Z,7.35
2023-01-08T01:17:13.550Z,7.30
2023-01-08T01:19:42.710Z,7.36
2023-01-08T01:22:13.500Z,7.24
2023-01-08T01:24:42.744Z,7.08
2023-01-08T01:27:12.115Z,7.21
2023-01-08T01:29:41.375Z,7.34
2023-01-08T01:32:11.165Z,7.39
2023-01-08T01:34:40.369Z,7.37
2023-01-08T01:37:10.716Z,7.44
2023-01-08T01:39:43.445Z,7.38
2023-01-08T01:42:36.540Z,7.49
2023-01-08T01:45:14.646Z,7.58
2023-01-08T01:47:47.018Z,7.45
2023-01-08T01:50:20.208Z,7.54
2023-01-08T01:52:56.620Z,7.57
2023-01-08T01:55:29.047Z,7.51
2023-01-08T01:58:06.085Z,7.47
2023-01-08T02:00:36.301Z,7.50
2023-01-08T02:08:36.535Z,7.45
2023-01-08T02:11:12.106Z,7.46
2023-01-08T02:13:47.961Z,7.39
2023-01-08T02:16:23.163Z,7.54
2023-01-08T02:18:58.601Z,7.32
2023-01-08T02:21:32.643Z,7.43
2023-01-08T02:24:09.270Z,7.57
2023-01-08T02:26:40.304Z,7.57
2023-01-08T02:29:11.174Z,7.38
2023-01-08T02:31:43.384Z,7.68
2023-01-08T02:34:14.000Z,7.75
2023-01-08T02:36:44.846Z,7.73
2023-01-08T02:39:26.064Z,7.69
2023-01-08T02:42:07.036Z,7.75
2023-01-08T02:44:56.922Z,7.68
2023-01-08T02:47:32.464Z,7.76
2023-01-08T02:50:17.061Z,7.74
2023-01-08T02:52:55.137Z,7.61
2023-01-08T02:55:27.434Z,7.62
2023-01-08T02:57:59.189Z,7.65
2023-01-08T03:00:29.508Z,7.69
2023-01-08T03:03:07.544Z,7.63
2023-01-08T03:05:39.347Z,7.81
2023-01-08T03:08:09.455Z,7.63
2023-01-08T03:10:41.658Z,7.69
2023-01-08T03:13:17.253Z,7.71
2023-01-08T03:15:51.117Z,7.81
2023-01-08T03:18:25.389Z,7.69
2023-01-08T03:20:55.239Z,7.85
2023-01-08T03:23:26.100Z,7.82
2023-01-08T03:25:55.938Z,7.80
2023-01-08T03:28:32.926Z,7.66
2023-01-08T03:36:08.677Z,7.92
2023-01-08T03:38:42.943Z,7.98
2023-01-08T03:41:14.706Z,7.92
2023-01-08T03:43:45.751Z,7.95
2023-01-08T03:46:18.854Z,7.83
2023-01-08T03:48:49.850Z,7.71
2023-01-08T03:51:19.537Z,7.74
2023-01-08T03:53:49.859Z,7.71
2023-01-08T03:56:19.003Z,7.59
2023-01-08T03:58:50.610Z,7.60
2023-01-08T04:01:19.872Z,7.66
2023-01-08T04:03:49.304Z,7.72
2023-01-08T04:06:18.382Z,7.67
2023-01-08T04:08:49.568Z,7.62
2023-01-08T04:11:18.807Z,7.79
2023-01-08T04:13:49.553Z,7.70
2023-01-08T04:16:18.781Z,7.67
2023-01-08T04:18:48.476Z,7.91
2023-01-08T04:21:17.617Z,7.75
2023-01-08T04:23:47.146Z,7.74
2023-01-08T04:26:16.266Z,7.77
2023-01-08T04:28:45.719Z,7.70
2023-01-08T04:31:16.442Z,7.68
2023-01-08T04:33:46.124Z,7.62
2023-01-08T04:36:15.340Z,7.77
2023-01-08T04:38:44.845Z,7.69
2023-01-08T04:41:13.881Z,7.69
2023-01-08T04:43:43.334Z,7.56
2023-01-08T04:46:12.605Z,7.74
2023-01-08T04:48:43.466Z,7.54
2023-01-08T04:51:12.614Z,7.67
2023-01-08T04:53:42.406Z,7.68
2023-01-08T04:56:12.681Z,7.68
2023-01-08T04:58:42.329Z,7.78
2023-01-08T05:01:13.634Z,7.53
2023-01-08T05:03:44.540Z,7.85
2023-01-08T05:06:13.811Z,7.89
2023-01-08T05:08:43.337Z,7.89
2023-01-08T05:11:12.457Z,7.78
2023-01-08T05:13:41.904Z,7.80
2023-01-08T05:16:11.140Z,7.98
2023-01-08T05:18:40.596Z,7.76
2023-01-08T05:21:11.430Z,8.01
2023-01-08T05:23:40.873Z,7.84
2023-01-08T05:26:09.987Z,7.89
2023-01-08T05:28:39.432Z,7.85
2023-01-08T05:31:09.205Z,8.08
2023-01-08T05:33:38.851Z,7.99
2023-01-08T05:36:13.036Z,8.01
2023-01-08T05:38:43.010Z,8.09
2023-01-08T05:41:12.851Z,7.86
2023-01-08T05:43:42.327Z,7.92
2023-01-08T05:46:11.688Z,7.71
2023-01-08T05:48:41.175Z,7.86
2023-01-08T05:51:12.113Z,7.71
2023-01-08T05:53:41.733Z,7.87
2023-01-08T05:56:12.160Z,7.79
2023-01-08T05:58:41.626Z,7.73
2023-01-08T06:01:15.854Z,7.83
2023-01-08T06:03:45.538Z,7.80
2023-01-08T06:06:16.858Z,7.76
2023-01-08T06:08:46.261Z,7.92
2023-01-08T06:11:15.392Z,7.74
2023-01-08T06:13:45.707Z,7.74
2023-01-08T06:16:15.405Z,7.78
2023-01-08T06:18:44.752Z,7.58
2023-01-08T06:21:15.660Z,7.60
2023-01-08T06:23:45.159Z,7.74
2023-01-08T06:26:14.207Z,7.61
2023-01-08T06:28:43.764Z,7.68
2023-01-08T06:31:12.872Z,7.61
2023-01-08T06:33:42.289Z,7.57
2023-01-08T06:36:11.678Z,7.61
2023-01-08T06:38:42.622Z,7.69
2023-01-08T06:41:12.843Z,7.67
2023-01-08T06:43:42.306Z,7.69
2023-01-08T06:46:12.280Z,7.76
2023-01-08T06:48:41.742Z,7.48
2023-01-08T06:51:10.894Z,7.71
2023-01-08T06:53:41.804Z,7.57
2023-01-08T06:56:11.361Z,7.72
2023-01-08T06:58:41.059Z,7.55
2023-01-08T07:01:15.741Z,7.71
2023-01-08T07:03:45.936Z,7.72
2023-01-08T07:06:17.505Z,7.61
2023-01-08T07:08:49.072Z,7.77
2023-01-08T07:11:18.851Z,7.72
2023-01-08T07:13:48.254Z,7.64
2023-01-08T07:16:17.587Z,7.56
2023-01-08T07:18:47.200Z,7.64
2023-01-08T07:21:16.343Z,7.78
2023-01-08T07:23:49.040Z,7.71
2023-01-08T07:26:18.847Z,7.66
2023-01-08T07:28:48.291Z,7.48
2023-01-08T07:31:17.504Z,7.66
2023-01-08T07:33:46.860Z,7.67
2023-01-08T07:36:17.899Z,7.60
2023-01-08T07:38:48.739Z,7.52
2023-01-08T07:41:18.085Z,7.76
2023-01-08T07:43:49.491Z,7.48
2023-01-08T07:46:18.732Z,7.39
2023-01-08T07:48:48.770Z,7.42
2023-01-08T07:51:18.118Z,7.62
2023-01-08T07:53:48.848Z,7.53
2023-01-08T07:56:17.955Z,7.46
2023-01-08T07:58:47.308Z,7.24
2023-01-08T08:01:16.916Z,7.54
2023-01-08T08:03:46.361Z,7.91
2023-01-08T08:06:15.682Z,7.75
2023-01-08T08:08:45.101Z,7.52
2023-01-08T08:11:15.790Z,7.32
2023-01-08T08:13:45.254Z,7.31
2023-01-08T08:16:14.448Z,7.34
2023-01-08T08:18:43.903Z,7.51
2023-01-08T08:21:13.024Z,7.39
2023-01-08T08:23:42.355Z,7.42
2023-01-08T08:26:11.576Z,7.23
2023-01-08T08:28:43.567Z,7.53
2023-01-08T08:31:12.657Z,7.53
2023-01-08T08:33:42.558Z,7.81
2023-01-08T08:36:11.890Z,7.41
2023-01-08T08:38:41.455Z,7.45
2023-01-08T08:41:10.548Z,7.37
2023-01-08T08:43:40.049Z,7.61
2023-01-08T08:46:10.647Z,7.55
2023-01-08T08:48:40.179Z,7.57
2023-01-08T08:51:09.446Z,7.32
2023-01-08T08:53:38.945Z,7.36
2023-01-08T08:56:08.532Z,7.43
2023-01-08T08:58:37.894Z,7.24
2023-01-08T09:01:08.256Z,7.64
2023-01-08T09:03:39.557Z,7.38
2023-01-08T09:06:13.470Z,7.36
2023-01-08T09:08:42.915Z,7.38
2023-01-08T09:11:14.244Z,7.52
2023-01-08T09:13:43.957Z,7.46
2023-01-08T09:16:13.154Z,7.62
2023-01-08T09:18:44.832Z,7.64
2023-01-08T09:21:14.011Z,7.57
2023-01-08T09:23:43.494Z,7.56
2023-01-08T09:26:12.708Z,7.44
2023-01-08T09:28:42.211Z,7.37
2023-01-08T09:31:11.539Z,7.40
2023-01-08T09:33:40.933Z,7.52
2023-01-08T09:36:13.109Z,7.62
2023-01-08T09:38:43.210Z,7.46
2023-01-08T09:41:17.061Z,7.40
2023-01-08T09:43:49.696Z,7.66
2023-01-08T09:46:22.232Z,7.47
2023-01-08T09:48:53.247Z,7.26
2023-01-08T09:51:24.653Z,7.55
2023-01-08T09:53:58.665Z,7.60
2023-01-08T09:56:28.450Z,7.40
2023-01-08T09:59:00.298Z,7.29
2023-01-08T10:01:31.991Z,7.46
2023-01-08T10:04:06.938Z,7.47
2023-01-08T10:06:37.561Z,7.55
2023-01-08T10:09:09.038Z,7.72
2023-01-08T10:11:44.374Z,7.50
2023-01-08T10:14:23.267Z,7.56
2023-01-08T10:16:58.434Z,7.26
2023-01-08T10:19:28.163Z,7.50
2023-01-08T10:21:59.259Z,7.47
2023-01-08T10:24:36.767Z,7.34
2023-01-08T10:27:10.286Z,7.49
2023-01-08T10:29:40.921Z,7.59
2023-01-08T10:32:15.417Z,7.68
2023-01-08T10:34:51.331Z,7.69
2023-01-08T10:37:28.470Z,7.39
2023-01-08T10:40:05.635Z,7.32
2023-01-08T10:42:37.510Z,7.46
2023-01-08T10:45:13.987Z,7.47
2023-01-08T10:47:49.309Z,7.61
2023-01-08T10:50:23.674Z,7.36
2023-01-08T10:52:59.051Z,7.41
2023-01-08T10:55:29.442Z,7.61
2023-01-08T10:58:00.667Z,7.59
2023-01-08T11:00:32.728Z,7.65
2023-01-08T11:03:05.471Z,7.50
2023-01-08T11:05:37.438Z,7.56
2023-01-08T11:08:16.206Z,7.43
2023-01-08T11:10:54.159Z,7.65
2023-01-08T11:13:24.205Z,7.72
2023-01-08T11:16:03.975Z,7.65
2023-01-08T11:18:36.190Z,7.66
2023-01-08T11:21:11.488Z,7.66
2023-01-08T11:23:41.995Z,7.68
2023-01-08T11:26:16.817Z,7.69
2023-01-08T11:28:53.687Z,7.73
2023-01-08T11:31:30.174Z,7.75
2023-01-08T11:34:06.966Z,7.78
2023-01-08T11:36:41.180Z,7.81
2023-01-08T11:39:12.388Z,7.79
2023-01-08T11:42:01.637Z,7.71
2023-01-08T11:44:41.345Z,7.58
2023-01-08T11:47:16.073Z,7.69
2023-01-08T11:50:11.237Z,7.79
2023-01-08T11:52:49.459Z,7.62
2023-01-08T11:55:31.681Z,7.52
2023-01-08T11:58:23.211Z,7.58
2023-01-08T12:01:09.378Z,7.50
2023-01-08T12:03:43.328Z,7.92
2023-01-08T12:06:24.025Z,7.58
2023-01-08T12:09:04.010Z,7.71
2023-01-08T12:11:42.058Z,7.54
2023-01-08T12:14:34.199Z,7.83
2023-01-08T12:17:28.041Z,7.79
2023-01-08T12:20:13.489Z,7.58
2023-01-08T12:22:48.421Z,7.82
2023-01-08T12:25:42.161Z,8.17
2023-01-08T12:28:34.106Z,8.25
2023-01-08T12:31:25.758Z,8.09
2023-01-08T12:33:58.832Z,8.20
2023-01-08T12:36:37.392Z,8.09
2023-01-08T12:39:12.480Z,7.83
2023-01-08T12:41:44.612Z,7.82
2023-01-08T12:44:22.659Z,7.86
2023-01-08T12:46:54.609Z,7.59
2023-01-08T12:49:34.371Z,7.85
2023-01-08T12:52:09.314Z,7.89
2023-01-08T12:54:49.340Z,7.85
2023-01-08T12:57:26.768Z,7.79
2023-01-08T13:00:06.081Z,7.71
2023-01-08T13:02:45.908Z,7.85
2023-01-08T13:05:30.327Z,7.92
2023-01-08T13:08:01.776Z,7.78
2023-01-08T13:10:38.922Z,7.77
2023-01-08T13:13:09.911Z,7.61
2023-01-08T13:15:40.424Z,7.88
2023-01-08T13:18:18.710Z,8.13
2023-01-08T13:20:58.016Z,7.75
2023-01-08T13:23:30.027Z,7.95
2023-01-08T13:26:00.696Z,7.92
2023-01-08T13:28:42.544Z,8.08
2023-01-08T13:31:29.148Z,7.84
2023-01-08T13:33:58.562Z,7.78
2023-01-08T13:36:29.532Z,7.83
2023-01-08T13:39:21.095Z,8.00
2023-01-08T13:42:01.704Z,8.09
2023-01-08T13:44:34.571Z,8.04
2023-01-08T13:47:16.970Z,7.94
2023-01-08T13:49:49.995Z,7.79
2023-01-08T13:52:40.165Z,8.06
2023-01-08T13:55:17.427Z,7.99
2023-01-08T13:57:50.316Z,8.31
2023-01-08T14:00:25.645Z,7.74
2023-01-08T14:02:56.284Z,7.86
2023-01-08T14:05:29.127Z,7.91
2023-01-08T14:07:59.033Z,7.76
2023-01-08T14:10:29.878Z,7.92
2023-01-08T14:13:08.349Z,8.00
2023-01-08T14:15:39.844Z,7.99
2023-01-08T14:18:12.839Z,7.72
2023-01-08T14:20:45.397Z,7.86
2023-01-08T14:23:20.538Z,7.92
2023-01-08T14:25:50.405Z,7.78
2023-01-08T14:28:22.891Z,7.78
2023-01-08T14:30:54.202Z,7.82
2023-01-08T14:33:28.158Z,7.87
2023-01-08T14:35:58.343Z,7.94
2023-01-08T14:38:27.632Z,8.05
2023-01-08T14:41:02.721Z,7.94
2023-01-08T14:43:36.371Z,7.95
2023-01-08T14:46:21.178Z,7.98
2023-01-08T14:48:52.489Z,8.15
2023-01-08T14:51:25.629Z,8.00
2023-01-08T14:53:59.226Z,7.96
2023-01-08T14:56:37.350Z,7.87
2023-01-08T14:59:11.515Z,7.99
2023-01-08T15:01:41.887Z,7.95
2023-01-08T15:04:18.376Z,8.11
2023-01-08T15:06:48.786Z,8.25
2023-01-08T15:09:24.325Z,8.36
2023-01-08T15:11:54.633Z,8.30
2023-01-08T15:14:26.122Z,7.92
2023-01-08T15:16:58.077Z,7.96
2023-01-08T15:19:30.212Z,8.11
2023-01-08T15:22:02.709Z,8.25
2023-01-08T15:24:34.408Z,7.98
2023-01-08T15:27:10.368Z,8.05
2023-01-08T15:29:42.070Z,7.97
2023-01-08T15:32:13.323Z,8.20
2023-01-08T15:34:44.113Z,8.10
2023-01-08T15:37:14.692Z,8.47
2023-01-08T15:39:43.993Z,8.41
2023-01-08T15:42:38.662Z,8.44
2023-01-08T15:45:13.236Z,8.57
2023-01-08T15:47:42.863Z,8.45
2023-01-08T15:50:13.866Z,8.46
2023-01-08T15:52:44.817Z,8.25
2023-01-08T15:55:17.989Z,8.31
2023-01-08T15:57:47.826Z,8.22
2023-01-08T16:00:18.947Z,8.18
2023-01-08T16:02:50.540Z,8.32
2023-01-08T16:05:23.306Z,8.34
2023-01-08T16:07:52.987Z,8.22
2023-01-08T16:10:23.227Z,8.18
2023-01-08T16:12:52.743Z,8.27
2023-01-08T16:15:22.830Z,8.17
2023-01-08T16:17:52.420Z,8.10
2023-01-08T16:20:22.973Z,8.22
2023-01-08T16:22:52.508Z,8.22
2023-01-08T16:25:21.708Z,8.15
2023-01-08T16:27:51.170Z,8.07
2023-01-08T16:30:20.792Z,8.33
2023-01-08T16:32:53.537Z,8.21
2023-01-08T16:35:24.568Z,8.05
2023-01-08T16:37:53.997Z,8.11
2023-01-08T16:40:23.403Z,8.31
2023-01-08T16:42:52.907Z,8.26
2023-01-08T16:45:22.055Z,8.29
2023-01-08T16:47:52.334Z,8.21
2023-01-08T16:50:21.504Z,8.10
2023-01-08T16:52:52.458Z,8.31
2023-01-08T16:55:21.736Z,8.16
2023-01-08T16:57:51.340Z,8.32
2023-01-08T17:00:21.176Z,8.19
2023-01-08T17:02:50.802Z,8.30
2023-01-08T17:05:20.267Z,8.25
2023-01-08T17:07:54.591Z,8.25
2023-01-08T17:10:24.787Z,8.24
2023-01-08T17:12:54.447Z,8.19
2023-01-08T17:15:23.542Z,8.30
2023-01-08T17:17:53.031Z,8.45
2023-01-08T17:20:22.330Z,8.29
2023-01-08T17:22:53.140Z,8.42
2023-01-08T17:25:22.368Z,8.34
2023-01-08T17:27:53.944Z,8.28
2023-01-08T17:30:23.625Z,8.52
2023-01-08T17:32:53.236Z,8.66
2023-01-08T17:35:22.344Z,8.31
2023-01-08T17:37:53.292Z,8.40
2023-01-08T17:40:22.668Z,8.40
2023-01-08T17:42:52.581Z,8.10
2023-01-08T17:45:21.663Z,8.44
2023-01-08T17:47:51.085Z,8.27
2023-01-08T17:50:20.984Z,8.69
2023-01-08T17:52:50.768Z,8.62
2023-01-08T17:55:21.352Z,8.72
2023-01-08T17:57:50.827Z,8.57
2023-01-08T18:00:21.244Z,8.46
2023-01-08T18:02:50.732Z,8.31
2023-01-08T18:05:19.961Z,8.44
2023-01-08T18:07:49.488Z,8.29
2023-01-08T18:10:20.285Z,8.23
2023-01-08T18:12:49.777Z,8.44
2023-01-08T18:15:19.124Z,8.20
2023-01-08T18:17:49.952Z,8.50
2023-01-08T18:20:19.713Z,8.38
2023-01-08T18:22:49.430Z,8.17
2023-01-08T18:25:20.281Z,8.09
2023-01-08T18:27:49.952Z,8.30
2023-01-08T18:30:19.372Z,8.42
2023-01-08T18:32:48.749Z,8.13
2023-01-08T18:35:19.580Z,8.22
2023-01-08T18:37:49.306Z,8.44
2023-01-08T18:40:20.364Z,8.40
2023-01-08T18:42:50.254Z,8.55
2023-01-08T18:45:19.684Z,8.32
2023-01-08T18:47:49.148Z,8.33
2023-01-08T18:50:21.188Z,8.38
2023-01-08T18:52:50.715Z,8.32
2023-01-08T18:55:21.265Z,8.40
2023-01-08T18:57:51.235Z,8.31
2023-01-08T19:00:21.096Z,8.47
2023-01-08T19:02:52.006Z,8.48
2023-01-08T19:05:22.916Z,8.57
2023-01-08T19:07:52.631Z,8.21
2023-01-08T19:10:23.491Z,8.40
2023-01-08T19:12:53.167Z,8.13
2023-01-08T19:15:22.653Z,8.32
2023-01-08T19:17:52.224Z,8.38
2023-01-08T19:20:21.644Z,8.32
2023-01-08T19:22:51.625Z,8.40
2023-01-08T19:25:22.494Z,8.30
2023-01-08T19:27:51.906Z,8.44
2023-01-08T19:30:21.386Z,8.67
2023-01-08T19:32:51.004Z,8.48
2023-01-08T19:35:20.277Z,8.51
2023-01-08T19:37:49.867Z,8.66
2023-01-08T19:40:19.437Z,8.65
2023-01-08T19:43:04.324Z,8.40
2023-01-08T19:45:38.773Z,8.38
2023-01-08T19:48:09.208Z,8.56
2023-01-08T19:50:40.339Z,8.32
2023-01-08T19:53:12.297Z,8.57
2023-01-08T19:55:43.241Z,8.37
2023-01-08T19:58:14.223Z,8.45
2023-01-08T20:00:43.506Z,8.57
2023-01-08T20:03:13.065Z,8.58
2023-01-08T20:05:43.138Z,8.52
2023-01-08T20:08:12.794Z,8.56
2023-01-08T20:10:42.337Z,8.34
2023-01-08T20:13:13.483Z,8.43
2023-01-08T20:15:42.538Z,8.56
2023-01-08T20:18:12.173Z,8.56
2023-01-08T20:20:41.784Z,8.49
2023-01-08T20:23:13.096Z,8.62
2023-01-08T20:25:42.751Z,8.46
2023-01-08T20:28:13.859Z,8.73
2023-01-08T20:30:43.035Z,8.50
2023-01-08T20:33:14.185Z,8.52
2023-01-08T20:35:46.123Z,8.54
2023-01-08T20:38:15.841Z,8.61
2023-01-08T20:40:44.991Z,8.69
2023-01-08T20:43:15.783Z,8.64
2023-01-08T20:45:47.276Z,8.61
2023-01-08T20:48:16.845Z,8.53
2023-01-08T20:50:47.613Z,8.50
2023-01-08T20:53:17.175Z,8.61
2023-01-08T20:55:46.601Z,8.57
2023-01-08T20:58:19.165Z,8.77
2023-01-08T21:00:48.618Z,8.90
2023-01-08T21:03:18.156Z,8.60
2023-01-08T21:05:47.302Z,8.79
2023-01-08T21:08:16.867Z,8.52
2023-01-08T21:10:45.926Z,8.50
2023-01-08T21:13:15.534Z,8.53
2023-01-08T21:15:46.123Z,8.58
2023-01-08T21:18:16.139Z,8.59
2023-01-08T21:20:45.303Z,8.54
2023-01-08T21:23:14.672Z,8.54
2023-01-08T21:25:43.825Z,8.36
2023-01-08T21:28:13.204Z,8.37
2023-01-08T21:30:42.218Z,8.43
2023-01-08T21:33:13.066Z,8.37
2023-01-08T21:35:42.131Z,8.47
2023-01-08T21:38:11.602Z,8.53
2023-01-08T21:40:40.731Z,8.36
2023-01-08T21:43:28.910Z,8.37
2023-01-08T21:46:03.086Z,8.23
2023-01-08T21:48:33.920Z,8.51
2023-01-08T21:51:02.943Z,8.66
2023-01-08T21:53:31.375Z,8.51
2023-01-08T21:56:01.222Z,8.36
2023-01-08T21:58:31.866Z,8.53
2023-01-08T22:01:01.931Z,8.59
2023-01-08T22:03:32.826Z,8.36
2023-01-08T22:06:03.486Z,8.25
2023-01-08T22:08:32.992Z,8.38
2023-01-08T22:11:02.902Z,8.39
2023-01-08T22:13:32.919Z,8.29
2023-01-08T22:16:03.764Z,8.18
2023-01-08T22:18:34.721Z,8.67
2023-01-08T22:21:05.001Z,8.57
2023-01-08T22:23:34.980Z,8.56
2023-01-08T22:26:07.178Z,8.55
2023-01-08T22:28:39.261Z,8.27
2023-01-08T22:31:09.933Z,8.41
2023-01-08T22:33:41.026Z,8.37
2023-01-08T22:36:13.013Z,8.48
2023-01-08T22:38:42.595Z,8.44
2023-01-08T22:41:17.147Z,8.60
2023-01-08T22:43:46.628Z,8.65
2023-01-08T22:46:17.364Z,8.40
2023-01-08T22:48:48.165Z,8.39
2023-01-08T22:51:17.431Z,8.23
2023-01-08T22:53:46.894Z,8.06
2023-01-08T22:56:16.430Z,8.27
2023-01-08T22:58:46.377Z,8.34
2023-01-08T23:01:17.377Z,8.31
2023-01-08T23:03:50.266Z,8.04
2023-01-08T23:06:20.925Z,8.33
2023-01-08T23:08:51.195Z,8.13
2023-01-08T23:11:21.738Z,8.28
2023-01-08T23:13:52.175Z,8.12
2023-01-08T23:16:25.152Z,8.03
2023-01-08T23:18:56.955Z,8.09
2023-01-08T23:21:27.358Z,8.05
2023-01-08T23:23:56.924Z,8.04
2023-01-08T23:26:29.428Z,8.15
2023-01-08T23:29:00.706Z,8.25
2023-01-08T23:31:32.513Z,8.10
2023-01-08T23:34:03.291Z,7.89
2023-01-08T23:36:32.466Z,8.20
2023-01-08T23:39:02.114Z,8.34
2023-01-08T23:41:34.685Z,8.07
2023-01-08T23:44:07.268Z,8.39
2023-01-08T23:46:37.418Z,8.27
2023-01-08T23:49:08.478Z,8.23
2023-01-08T23:51:38.692Z,7.98
2023-01-08T23:54:08.134Z,8.25
2023-01-08T23:56:37.330Z,8.20
2023-01-08T23:59:07.193Z,8.03
